Terminal Aerodrome Forecast
Issued by NWS

Home | Current Version | Previous Version | Text Only | Print | Product List | Glossary On
Versions: 1 2 3 4 5 6 7 8 9 10 11 12 13 14 15 16 17
000
FTUS46 KEKA 281131
TAFCEC
TAF
KCEC 281131Z 2812/2912 16015G22KT P6SM -RA BKN050 OVC090
     FM281500 14018G28KT 6SM -RA BKN035 OVC050
     FM290000 17012KT P6SM -RA OVC035
     FM290600 16012KT 5SM -RA BR OVC050=

USA.gov is the U.S. government's official web portal to all federal, state and local government web resources and services.